Pagrindinis puslapis
METAR-TAF:

METAR-TAF

Oro uostai :

Korumba, Pietų Mato Grosas, Brazilija

platuma: 19-05S, ilguma: 057-30W, Aukštis: 130 m

Dabartinis oras

Ataskaita buvo paskelbta 45 minutes, ne 13:00 UTC
Vėjas 14 kt iš Šiaurės/Šiaurės Vakarų
Temperatūra 33°C
Drėgmė 53%
Slėgis 1006 hPa
Matomumas 10 km arba daugiau
nėra debesų žemiau 1500 m ir nėra kamuolinių lietaus debesų

METAR: SBCR 231300Z 34014KT CAVOK 33/22 Q1006

Laikas: 09:45 (13:45 UTC)

Prognozė

Ataskaita buvo paskelbta 4 valandos ir 25 minutes, ne 09:20 UTC
Prognozė galioja nuo 23 metu 12 UTC su 24 metu 12 UTC
Vėjas 7 kt iš Šiaurės
Matomumas: 8000 m
Tapsmas
nuo 23 metu 13 UTC su 23 metu 15 UTC
Vėjas 15 kt iš Šiaurės/Šiaurės Vakarų
Tapsmas
nuo 24 metu 02 UTC su 24 metu 04 UTC
Vėjas 5 kt iš Vakarų/Pietvakarių
Matomumas: 6000 m
Su prošvaistėmis ne aukštis 500 ft
Mažai debesys ne aukštis 4000 ft, Liūtiniai kamuoliniai debesys.
perkūnija, lietus

TAF: SBCR 230920Z 2312/2412 36007KT 8000 NSC TX38/2318Z TN23/2409Z BECMG 2313/2315 34015KT BECMG 2402/2404 24005KT 6000 TSRA BKN005 FEW040CB RMK PGN

Orai ataskaitas ir orų prognozės (METAR, TAF).

turimą stotys yra geltonos ir raudonos taškus žemėlapyje.

Perkelti pele per norėdami pamatyti stoties vardą.

Tada spustelėkite, norėdami matyti oro stebėjimo ir prognozės.

Norėdami pakeisti žemėlapį: spustelėkite ant žalios mygtukų su juodo kryžiaus žemyn,; žalią mygtuką su brūkšneliu, jei norite nutolinti; arba žalių rodyklių gretimoms žemėlapius.


METAR-TAF: